sensor_id;sensor_type;location;lat;lon;timestamp;P1;durP1;ratioP1;P2;durP2;ratioP2
47367;SDS011;34646;47.964;7.982;2023-02-15T00:05:31;3.30;;;2.10;;
47367;SDS011;34646;47.964;7.982;2023-02-15T00:11:32;4.77;;;2.43;;
47367;SDS011;34646;47.964;7.982;2023-02-15T00:17:39;2.40;;;1.70;;
47367;SDS011;34646;47.964;7.982;2023-02-15T00:23:40;4.07;;;2.37;;
47367;SDS011;34646;47.964;7.982;2023-02-15T00:29:41;3.87;;;1.93;;
47367;SDS011;34646;47.964;7.982;2023-02-15T00:35:42;2.67;;;1.63;;
47367;SDS011;34646;47.964;7.982;2023-02-15T00:41:44;4.50;;;1.70;;
47367;SDS011;34646;47.964;7.982;2023-02-15T00:47:45;5.00;;;2.03;;
47367;SDS011;34646;47.964;7.982;2023-02-15T00:53:46;6.87;;;2.00;;
47367;SDS011;34646;47.964;7.982;2023-02-15T00:59:47;2.83;;;1.93;;
47367;SDS011;34646;47.964;7.982;2023-02-15T01:05:48;3.73;;;1.87;;
47367;SDS011;34646;47.964;7.982;2023-02-15T01:11:50;2.65;;;1.63;;
47367;SDS011;34646;47.964;7.982;2023-02-15T01:17:52;5.75;;;2.00;;
47367;SDS011;34646;47.964;7.982;2023-02-15T01:23:55;3.22;;;1.80;;
47367;SDS011;34646;47.964;7.982;2023-02-15T01:29:56;4.57;;;2.10;;
47367;SDS011;34646;47.964;7.982;2023-02-15T01:35:57;3.13;;;1.87;;
47367;SDS011;34646;47.964;7.982;2023-02-15T01:41:58;2.75;;;1.77;;
47367;SDS011;34646;47.964;7.982;2023-02-15T01:48:02;3.53;;;1.70;;
47367;SDS011;34646;47.964;7.982;2023-02-15T01:54:17;2.45;;;1.38;;
47367;SDS011;34646;47.964;7.982;2023-02-15T02:00:26;2.38;;;1.70;;
47367;SDS011;34646;47.964;7.982;2023-02-15T02:06:27;3.75;;;1.50;;
47367;SDS011;34646;47.964;7.982;2023-02-15T02:12:28;3.80;;;1.90;;
47367;SDS011;34646;47.964;7.982;2023-02-15T02:25:28;3.03;;;1.92;;
47367;SDS011;34646;47.964;7.982;2023-02-15T02:45:13;2.47;;;1.60;;
47367;SDS011;34646;47.964;7.982;2023-02-15T02:51:36;3.88;;;1.60;;
47367;SDS011;34646;47.964;7.982;2023-02-15T02:57:37;3.40;;;1.50;;
47367;SDS011;34646;47.964;7.982;2023-02-15T03:09:46;2.63;;;1.70;;
47367;SDS011;34646;47.964;7.982;2023-02-15T03:15:50;2.53;;;1.50;;
47367;SDS011;34646;47.964;7.982;2023-02-15T03:22:15;2.63;;;1.60;;
47367;SDS011;34646;47.964;7.982;2023-02-15T03:28:23;2.70;;;1.63;;
47367;SDS011;34646;47.964;7.982;2023-02-15T03:34:30;2.78;;;1.88;;
47367;SDS011;34646;47.964;7.982;2023-02-15T03:40:37;2.27;;;1.47;;
47367;SDS011;34646;47.964;7.982;2023-02-15T03:46:59;2.35;;;1.58;;
47367;SDS011;34646;47.964;7.982;2023-02-15T03:53:07;2.60;;;1.50;;
47367;SDS011;34646;47.964;7.982;2023-02-15T03:59:10;2.97;;;1.80;;
47367;SDS011;34646;47.964;7.982;2023-02-15T04:05:30;2.92;;;1.70;;
47367;SDS011;34646;47.964;7.982;2023-02-15T04:11:31;1.97;;;1.40;;
47367;SDS011;34646;47.964;7.982;2023-02-15T04:17:32;2.37;;;1.57;;
47367;SDS011;34646;47.964;7.982;2023-02-15T04:23:33;2.37;;;1.70;;
47367;SDS011;34646;47.964;7.982;2023-02-15T04:29:53;2.03;;;1.45;;
47367;SDS011;34646;47.964;7.982;2023-02-15T04:35:54;2.53;;;1.40;;
47367;SDS011;34646;47.964;7.982;2023-02-15T04:41:56;2.08;;;1.30;;
47367;SDS011;34646;47.964;7.982;2023-02-15T04:47:57;2.60;;;1.37;;
47367;SDS011;34646;47.964;7.982;2023-02-15T04:53:58;2.43;;;1.30;;
47367;SDS011;34646;47.964;7.982;2023-02-15T04:59:59;2.63;;;1.60;;
47367;SDS011;34646;47.964;7.982;2023-02-15T05:06:00;3.00;;;1.47;;
47367;SDS011;34646;47.964;7.982;2023-02-15T05:12:01;4.80;;;1.43;;
47367;SDS011;34646;47.964;7.982;2023-02-15T05:18:02;2.83;;;1.70;;
47367;SDS011;34646;47.964;7.982;2023-02-15T05:24:03;1.80;;;1.30;;
47367;SDS011;34646;47.964;7.982;2023-02-15T05:30:25;2.67;;;1.53;;
47367;SDS011;34646;47.964;7.982;2023-02-15T05:36:26;2.20;;;1.23;;
47367;SDS011;34646;47.964;7.982;2023-02-15T05:42:28;2.05;;;1.40;;
47367;SDS011;34646;47.964;7.982;2023-02-15T05:48:29;2.47;;;1.60;;
47367;SDS011;34646;47.964;7.982;2023-02-15T05:54:30;3.42;;;2.00;;
47367;SDS011;34646;47.964;7.982;2023-02-15T06:00:31;5.07;;;1.70;;
47367;SDS011;34646;47.964;7.982;2023-02-15T06:06:32;2.83;;;1.57;;
47367;SDS011;34646;47.964;7.982;2023-02-15T06:18:35;4.45;;;1.58;;
47367;SDS011;34646;47.964;7.982;2023-02-15T06:24:36;3.50;;;1.67;;
47367;SDS011;34646;47.964;7.982;2023-02-15T06:30:37;4.53;;;1.60;;
47367;SDS011;34646;47.964;7.982;2023-02-15T06:36:38;6.67;;;2.57;;
47367;SDS011;34646;47.964;7.982;2023-02-15T06:42:39;4.07;;;2.33;;
47367;SDS011;34646;47.964;7.982;2023-02-15T06:48:40;6.77;;;3.20;;
47367;SDS011;34646;47.964;7.982;2023-02-15T06:54:41;9.00;;;3.33;;
47367;SDS011;34646;47.964;7.982;2023-02-15T07:00:42;15.97;;;3.00;;
47367;SDS011;34646;47.964;7.982;2023-02-15T07:06:43;7.60;;;2.53;;
47367;SDS011;34646;47.964;7.982;2023-02-15T07:12:44;8.93;;;2.97;;
47367;SDS011;34646;47.964;7.982;2023-02-15T07:18:46;13.90;;;2.55;;
47367;SDS011;34646;47.964;7.982;2023-02-15T07:24:46;6.10;;;2.70;;
47367;SDS011;34646;47.964;7.982;2023-02-15T07:30:49;5.72;;;2.55;;
47367;SDS011;34646;47.964;7.982;2023-02-15T07:36:50;6.83;;;2.87;;
47367;SDS011;34646;47.964;7.982;2023-02-15T07:42:51;5.97;;;2.50;;
47367;SDS011;34646;47.964;7.982;2023-02-15T07:48:55;4.22;;;2.88;;
47367;SDS011;34646;47.964;7.982;2023-02-15T07:54:56;4.40;;;2.70;;
47367;SDS011;34646;47.964;7.982;2023-02-15T08:00:57;8.37;;;2.80;;
47367;SDS011;34646;47.964;7.982;2023-02-15T08:06:58;5.83;;;2.80;;
47367;SDS011;34646;47.964;7.982;2023-02-15T08:12:59;5.57;;;2.30;;
47367;SDS011;34646;47.964;7.982;2023-02-15T08:19:01;5.37;;;2.57;;
47367;SDS011;34646;47.964;7.982;2023-02-15T08:25:06;4.95;;;2.38;;
47367;SDS011;34646;47.964;7.982;2023-02-15T08:31:07;4.80;;;2.30;;
47367;SDS011;34646;47.964;7.982;2023-02-15T08:37:10;5.53;;;2.05;;
47367;SDS011;34646;47.964;7.982;2023-02-15T08:43:11;7.27;;;2.83;;
47367;SDS011;34646;47.964;7.982;2023-02-15T08:49:13;6.10;;;2.60;;
47367;SDS011;34646;47.964;7.982;2023-02-15T08:55:18;5.25;;;2.13;;
47367;SDS011;34646;47.964;7.982;2023-02-15T09:01:20;4.57;;;2.00;;
47367;SDS011;34646;47.964;7.982;2023-02-15T09:07:22;4.25;;;2.50;;
47367;SDS011;34646;47.964;7.982;2023-02-15T09:13:23;4.23;;;2.20;;
47367;SDS011;34646;47.964;7.982;2023-02-15T09:19:24;5.97;;;2.73;;
47367;SDS011;34646;47.964;7.982;2023-02-15T09:25:25;4.27;;;2.67;;
47367;SDS011;34646;47.964;7.982;2023-02-15T09:31:27;4.18;;;2.10;;
47367;SDS011;34646;47.964;7.982;2023-02-15T09:37:30;4.57;;;2.35;;
47367;SDS011;34646;47.964;7.982;2023-02-15T09:56:13;5.22;;;2.47;;
47367;SDS011;34646;47.964;7.982;2023-02-15T10:26:53;4.23;;;2.17;;
47367;SDS011;34646;47.964;7.982;2023-02-15T10:32:59;6.25;;;2.40;;
47367;SDS011;34646;47.964;7.982;2023-02-15T10:39:06;2.72;;;1.88;;
47367;SDS011;34646;47.964;7.982;2023-02-15T10:45:29;4.32;;;2.28;;
47367;SDS011;34646;47.964;7.982;2023-02-15T10:52:10;3.47;;;2.20;;
47367;SDS011;34646;47.964;7.982;2023-02-15T10:58:42;2.17;;;1.73;;
47367;SDS011;34646;47.964;7.982;2023-02-15T11:05:02;4.05;;;2.38;;
47367;SDS011;34646;47.964;7.982;2023-02-15T11:11:25;5.05;;;1.85;;
47367;SDS011;34646;47.964;7.982;2023-02-15T11:17:33;4.43;;;1.98;;
47367;SDS011;34646;47.964;7.982;2023-02-15T11:23:40;2.67;;;1.73;;
47367;SDS011;34646;47.964;7.982;2023-02-15T11:29:52;4.35;;;1.90;;
47367;SDS011;34646;47.964;7.982;2023-02-15T11:36:04;2.60;;;1.67;;
47367;SDS011;34646;47.964;7.982;2023-02-15T11:42:13;2.97;;;1.90;;
47367;SDS011;34646;47.964;7.982;2023-02-15T11:48:18;3.58;;;1.98;;
47367;SDS011;34646;47.964;7.982;2023-02-15T11:54:23;3.10;;;2.13;;
47367;SDS011;34646;47.964;7.982;2023-02-15T12:00:37;3.03;;;1.90;;
47367;SDS011;34646;47.964;7.982;2023-02-15T12:06:51;2.40;;;1.58;;
47367;SDS011;34646;47.964;7.982;2023-02-15T12:13:14;3.42;;;1.90;;
47367;SDS011;34646;47.964;7.982;2023-02-15T12:25:37;3.85;;;2.08;;
47367;SDS011;34646;47.964;7.982;2023-02-15T12:31:45;4.15;;;1.70;;
47367;SDS011;34646;47.964;7.982;2023-02-15T12:37:56;3.47;;;1.83;;
47367;SDS011;34646;47.964;7.982;2023-02-15T12:44:03;3.30;;;1.52;;
47367;SDS011;34646;47.964;7.982;2023-02-15T12:50:25;2.15;;;1.60;;
47367;SDS011;34646;47.964;7.982;2023-02-15T12:56:28;2.83;;;1.55;;
47367;SDS011;34646;47.964;7.982;2023-02-15T13:08:48;5.05;;;1.83;;
47367;SDS011;34646;47.964;7.982;2023-02-15T13:14:51;8.13;;;2.13;;
47367;SDS011;34646;47.964;7.982;2023-02-15T13:20:54;8.50;;;2.50;;
47367;SDS011;34646;47.964;7.982;2023-02-15T13:26:56;8.37;;;2.23;;
47367;SDS011;34646;47.964;7.982;2023-02-15T13:32:59;14.35;;;3.03;;
47367;SDS011;34646;47.964;7.982;2023-02-15T13:45:16;24.63;;;2.40;;
47367;SDS011;34646;47.964;7.982;2023-02-15T14:04:43;22.80;;;3.10;;
47367;SDS011;34646;47.964;7.982;2023-02-15T14:11:03;11.85;;;2.55;;
47367;SDS011;34646;47.964;7.982;2023-02-15T14:23:41;13.23;;;2.80;;
47367;SDS011;34646;47.964;7.982;2023-02-15T14:30:09;11.18;;;2.15;;
47367;SDS011;34646;47.964;7.982;2023-02-15T14:36:16;16.10;;;2.65;;
47367;SDS011;34646;47.964;7.982;2023-02-15T14:48:42;14.02;;;3.03;;
47367;SDS011;34646;47.964;7.982;2023-02-15T15:00:49;11.53;;;2.37;;
47367;SDS011;34646;47.964;7.982;2023-02-15T15:07:36;18.47;;;2.97;;
47367;SDS011;34646;47.964;7.982;2023-02-15T15:19:56;9.52;;;1.98;;
47367;SDS011;34646;47.964;7.982;2023-02-15T15:26:20;7.63;;;2.15;;
47367;SDS011;34646;47.964;7.982;2023-02-15T15:32:25;8.75;;;2.55;;
47367;SDS011;34646;47.964;7.982;2023-02-15T15:39:04;13.55;;;3.28;;
47367;SDS011;34646;47.964;7.982;2023-02-15T15:45:08;10.90;;;2.05;;
47367;SDS011;34646;47.964;7.982;2023-02-15T15:51:33;6.13;;;2.88;;
47367;SDS011;34646;47.964;7.982;2023-02-15T15:57:39;8.63;;;2.03;;
47367;SDS011;34646;47.964;7.982;2023-02-15T16:03:52;9.10;;;2.20;;
47367;SDS011;34646;47.964;7.982;2023-02-15T16:16:03;8.48;;;2.25;;
47367;SDS011;34646;47.964;7.982;2023-02-15T16:22:07;10.50;;;2.30;;
47367;SDS011;34646;47.964;7.982;2023-02-15T16:28:13;9.23;;;1.90;;
47367;SDS011;34646;47.964;7.982;2023-02-15T16:34:18;8.88;;;1.85;;
47367;SDS011;34646;47.964;7.982;2023-02-15T16:52:23;4.73;;;1.90;;
47367;SDS011;34646;47.964;7.982;2023-02-15T16:58:26;8.88;;;2.20;;
47367;SDS011;34646;47.964;7.982;2023-02-15T17:04:34;6.15;;;1.55;;
47367;SDS011;34646;47.964;7.982;2023-02-15T17:10:39;7.85;;;1.98;;
47367;SDS011;34646;47.964;7.982;2023-02-15T17:16:45;7.97;;;1.92;;
47367;SDS011;34646;47.964;7.982;2023-02-15T17:22:54;10.60;;;2.17;;
47367;SDS011;34646;47.964;7.982;2023-02-15T17:28:56;9.63;;;2.27;;
47367;SDS011;34646;47.964;7.982;2023-02-15T17:41:04;11.50;;;2.35;;
47367;SDS011;34646;47.964;7.982;2023-02-15T17:47:05;11.87;;;2.13;;
47367;SDS011;34646;47.964;7.982;2023-02-15T17:53:07;7.30;;;2.30;;
47367;SDS011;34646;47.964;7.982;2023-02-15T17:59:09;9.13;;;1.95;;
47367;SDS011;34646;47.964;7.982;2023-02-15T18:05:14;7.97;;;1.88;;
47367;SDS011;34646;47.964;7.982;2023-02-15T18:11:34;5.70;;;1.83;;
47367;SDS011;34646;47.964;7.982;2023-02-15T18:17:43;6.93;;;1.90;;
47367;SDS011;34646;47.964;7.982;2023-02-15T18:23:45;6.53;;;2.05;;
47367;SDS011;34646;47.964;7.982;2023-02-15T18:29:47;6.13;;;1.73;;
47367;SDS011;34646;47.964;7.982;2023-02-15T18:35:47;5.53;;;1.77;;
47367;SDS011;34646;47.964;7.982;2023-02-15T18:41:50;7.93;;;2.08;;
47367;SDS011;34646;47.964;7.982;2023-02-15T18:47:51;4.53;;;2.37;;
47367;SDS011;34646;47.964;7.982;2023-02-15T18:54:00;5.00;;;1.58;;
47367;SDS011;34646;47.964;7.982;2023-02-15T19:00:01;9.38;;;2.00;;
47367;SDS011;34646;47.964;7.982;2023-02-15T19:06:04;5.65;;;2.03;;
47367;SDS011;34646;47.964;7.982;2023-02-15T19:12:09;6.82;;;2.10;;
47367;SDS011;34646;47.964;7.982;2023-02-15T19:18:12;7.68;;;2.05;;
47367;SDS011;34646;47.964;7.982;2023-02-15T19:24:15;6.67;;;1.90;;
47367;SDS011;34646;47.964;7.982;2023-02-15T19:30:26;7.95;;;2.30;;
47367;SDS011;34646;47.964;7.982;2023-02-15T19:36:28;3.17;;;1.60;;
47367;SDS011;34646;47.964;7.982;2023-02-15T19:42:29;7.57;;;1.80;;
47367;SDS011;34646;47.964;7.982;2023-02-15T19:48:32;8.20;;;1.70;;
47367;SDS011;34646;47.964;7.982;2023-02-15T19:54:33;4.30;;;1.67;;
47367;SDS011;34646;47.964;7.982;2023-02-15T20:00:34;4.97;;;1.83;;
47367;SDS011;34646;47.964;7.982;2023-02-15T20:06:35;6.18;;;1.88;;
47367;SDS011;34646;47.964;7.982;2023-02-15T20:12:36;8.77;;;2.10;;
47367;SDS011;34646;47.964;7.982;2023-02-15T20:18:37;5.90;;;1.83;;
47367;SDS011;34646;47.964;7.982;2023-02-15T20:24:38;4.97;;;1.60;;
47367;SDS011;34646;47.964;7.982;2023-02-15T20:30:40;7.50;;;2.00;;
47367;SDS011;34646;47.964;7.982;2023-02-15T20:36:42;8.93;;;1.88;;
47367;SDS011;34646;47.964;7.982;2023-02-15T20:42:43;8.47;;;2.13;;
47367;SDS011;34646;47.964;7.982;2023-02-15T20:48:44;8.57;;;1.70;;
47367;SDS011;34646;47.964;7.982;2023-02-15T20:54:45;7.50;;;2.17;;
47367;SDS011;34646;47.964;7.982;2023-02-15T21:00:46;4.90;;;1.80;;
47367;SDS011;34646;47.964;7.982;2023-02-15T21:06:47;7.03;;;1.98;;
47367;SDS011;34646;47.964;7.982;2023-02-15T21:12:48;8.80;;;2.40;;
47367;SDS011;34646;47.964;7.982;2023-02-15T21:18:50;8.23;;;2.10;;
47367;SDS011;34646;47.964;7.982;2023-02-15T21:24:50;6.77;;;1.97;;
47367;SDS011;34646;47.964;7.982;2023-02-15T21:30:54;5.30;;;1.80;;
47367;SDS011;34646;47.964;7.982;2023-02-15T21:36:59;5.75;;;1.80;;
47367;SDS011;34646;47.964;7.982;2023-02-15T21:43:00;7.07;;;1.97;;
47367;SDS011;34646;47.964;7.982;2023-02-15T21:49:19;7.10;;;2.15;;
47367;SDS011;34646;47.964;7.982;2023-02-15T21:55:21;7.57;;;1.73;;
47367;SDS011;34646;47.964;7.982;2023-02-15T22:01:23;7.07;;;1.87;;
47367;SDS011;34646;47.964;7.982;2023-02-15T22:07:25;10.30;;;1.90;;
47367;SDS011;34646;47.964;7.982;2023-02-15T22:13:27;4.80;;;1.87;;
47367;SDS011;34646;47.964;7.982;2023-02-15T22:19:30;4.18;;;1.42;;
47367;SDS011;34646;47.964;7.982;2023-02-15T22:25:31;6.00;;;1.70;;
47367;SDS011;34646;47.964;7.982;2023-02-15T22:31:32;7.60;;;1.87;;
47367;SDS011;34646;47.964;7.982;2023-02-15T22:37:33;4.30;;;2.13;;
47367;SDS011;34646;47.964;7.982;2023-02-15T22:43:38;1.93;;;1.43;;
47367;SDS011;34646;47.964;7.982;2023-02-15T22:49:41;9.40;;;1.73;;
47367;SDS011;34646;47.964;7.982;2023-02-15T22:55:43;3.53;;;1.33;;
47367;SDS011;34646;47.964;7.982;2023-02-15T23:01:44;3.93;;;1.30;;
47367;SDS011;34646;47.964;7.982;2023-02-15T23:07:45;3.07;;;1.20;;
47367;SDS011;34646;47.964;7.982;2023-02-15T23:19:48;4.15;;;1.50;;
47367;SDS011;34646;47.964;7.982;2023-02-15T23:25:49;3.70;;;1.40;;
47367;SDS011;34646;47.964;7.982;2023-02-15T23:31:52;2.37;;;1.67;;
47367;SDS011;34646;47.964;7.982;2023-02-15T23:37:53;3.97;;;1.60;;
47367;SDS011;34646;47.964;7.982;2023-02-15T23:43:55;3.43;;;1.43;;
47367;SDS011;34646;47.964;7.982;2023-02-15T23:49:59;2.67;;;1.25;;
47367;SDS011;34646;47.964;7.982;2023-02-15T23:56:00;2.77;;;1.40;;
